sensor_id;sensor_type;location;lat;lon;timestamp;pressure;altitude;pressure_sealevel;temperature;humidity
19236;BME280;9752;54.270;12.470;2023-05-02T00:00:44;101428.13;;;9.10;100.00
19236;BME280;9752;54.270;12.470;2023-05-02T00:05:46;101425.97;;;9.04;100.00
19236;BME280;9752;54.270;12.470;2023-05-02T00:10:49;101425.63;;;8.99;100.00
19236;BME280;9752;54.270;12.470;2023-05-02T00:15:51;101420.91;;;8.94;100.00
19236;BME280;9752;54.270;12.470;2023-05-02T00:20:54;101431.72;;;9.00;100.00
19236;BME280;9752;54.270;12.470;2023-05-02T00:25:57;101426.50;;;8.88;100.00
19236;BME280;9752;54.270;12.470;2023-05-02T00:30:59;101422.56;;;8.93;100.00
19236;BME280;9752;54.270;12.470;2023-05-02T00:36:00;101427.78;;;8.71;100.00
19236;BME280;9752;54.270;12.470;2023-05-02T00:41:03;101430.19;;;8.58;100.00
19236;BME280;9752;54.270;12.470;2023-05-02T00:46:05;101431.94;;;8.69;100.00
19236;BME280;9752;54.270;12.470;2023-05-02T00:51:07;101441.69;;;8.62;100.00
19236;BME280;9752;54.270;12.470;2023-05-02T00:56:12;101445.34;;;8.75;100.00
19236;BME280;9752;54.270;12.470;2023-05-02T01:01:24;101443.94;;;8.69;100.00
19236;BME280;9752;54.270;12.470;2023-05-02T01:06:38;101441.19;;;9.11;100.00
19236;BME280;9752;54.270;12.470;2023-05-02T01:11:47;101442.31;;;9.03;100.00
19236;BME280;9752;54.270;12.470;2023-05-02T01:16:54;101436.19;;;9.03;100.00
19236;BME280;9752;54.270;12.470;2023-05-02T01:21:57;101425.91;;;9.14;100.00
19236;BME280;9752;54.270;12.470;2023-05-02T01:27:14;101435.34;;;9.14;100.00
19236;BME280;9752;54.270;12.470;2023-05-02T01:32:22;101445.69;;;9.14;100.00
19236;BME280;9752;54.270;12.470;2023-05-02T01:37:26;101442.09;;;9.12;100.00
19236;BME280;9752;54.270;12.470;2023-05-02T01:42:29;101457.59;;;9.00;100.00
19236;BME280;9752;54.270;12.470;2023-05-02T01:47:34;101446.09;;;8.96;100.00
19236;BME280;9752;54.270;12.470;2023-05-02T01:52:37;101464.13;;;9.07;100.00
19236;BME280;9752;54.270;12.470;2023-05-02T01:57:41;101479.47;;;9.15;100.00
19236;BME280;9752;54.270;12.470;2023-05-02T02:02:46;101534.41;;;9.23;100.00
19236;BME280;9752;54.270;12.470;2023-05-02T02:07:49;101558.50;;;9.22;100.00
19236;BME280;9752;54.270;12.470;2023-05-02T02:12:53;101677.19;;;9.17;100.00
19236;BME280;9752;54.270;12.470;2023-05-02T02:18:07;101719.00;;;9.22;100.00
19236;BME280;9752;54.270;12.470;2023-05-02T02:23:12;101743.41;;;9.26;100.00
19236;BME280;9752;54.270;12.470;2023-05-02T02:28:15;101781.19;;;9.34;100.00
19236;BME280;9752;54.270;12.470;2023-05-02T02:33:18;101814.94;;;9.46;100.00
19236;BME280;9752;54.270;12.470;2023-05-02T02:38:25;101838.50;;;9.49;100.00
19236;BME280;9752;54.270;12.470;2023-05-02T02:43:35;101853.50;;;9.53;100.00
19236;BME280;9752;54.270;12.470;2023-05-02T02:48:49;101874.59;;;9.57;100.00
19236;BME280;9752;54.270;12.470;2023-05-02T02:53:59;101888.16;;;9.65;100.00
19236;BME280;9752;54.270;12.470;2023-05-02T02:59:11;101914.69;;;9.73;100.00
19236;BME280;9752;54.270;12.470;2023-05-02T03:04:17;101917.69;;;9.77;100.00
19236;BME280;9752;54.270;12.470;2023-05-02T03:09:20;101928.31;;;9.70;100.00
19236;BME280;9752;54.270;12.470;2023-05-02T03:14:24;101948.94;;;9.58;100.00
19236;BME280;9752;54.270;12.470;2023-05-02T03:19:27;101969.03;;;9.41;100.00
19236;BME280;9752;54.270;12.470;2023-05-02T03:24:30;102013.19;;;9.42;100.00
19236;BME280;9752;54.270;12.470;2023-05-02T03:29:32;102056.84;;;9.37;100.00
19236;BME280;9752;54.270;12.470;2023-05-02T03:34:35;102097.88;;;9.43;100.00
19236;BME280;9752;54.270;12.470;2023-05-02T03:39:37;102135.78;;;9.43;100.00
19236;BME280;9752;54.270;12.470;2023-05-02T03:44:38;102164.41;;;9.34;100.00
19236;BME280;9752;54.270;12.470;2023-05-02T03:49:41;102194.97;;;9.28;100.00
19236;BME280;9752;54.270;12.470;2023-05-02T03:54:43;102227.38;;;9.14;100.00
19236;BME280;9752;54.270;12.470;2023-05-02T03:59:47;102260.69;;;9.01;100.00
19236;BME280;9752;54.270;12.470;2023-05-02T04:04:59;102268.66;;;8.93;100.00
19236;BME280;9752;54.270;12.470;2023-05-02T04:10:01;102292.69;;;8.82;100.00
19236;BME280;9752;54.270;12.470;2023-05-02T04:15:08;102297.13;;;8.74;100.00
19236;BME280;9752;54.270;12.470;2023-05-02T04:20:11;102296.88;;;8.71;100.00
19236;BME280;9752;54.270;12.470;2023-05-02T04:25:17;102280.28;;;8.50;100.00
19236;BME280;9752;54.270;12.470;2023-05-02T04:30:20;102252.69;;;8.32;100.00
19236;BME280;9752;54.270;12.470;2023-05-02T04:35:43;102232.56;;;8.38;100.00
19236;BME280;9752;54.270;12.470;2023-05-02T04:40:49;102217.94;;;8.47;100.00
19236;BME280;9752;54.270;12.470;2023-05-02T04:45:51;102212.88;;;8.30;100.00
19236;BME280;9752;54.270;12.470;2023-05-02T04:51:00;102187.72;;;8.18;100.00
19236;BME280;9752;54.270;12.470;2023-05-02T04:56:04;102148.94;;;7.99;100.00
19236;BME280;9752;54.270;12.470;2023-05-02T05:01:09;102139.97;;;7.96;100.00
19236;BME280;9752;54.270;12.470;2023-05-02T05:06:13;102151.38;;;7.98;100.00
19236;BME280;9752;54.270;12.470;2023-05-02T05:11:15;102116.56;;;7.94;100.00
19236;BME280;9752;54.270;12.470;2023-05-02T05:16:17;102113.81;;;7.74;100.00
19236;BME280;9752;54.270;12.470;2023-05-02T05:21:21;102097.16;;;7.70;100.00
19236;BME280;9752;54.270;12.470;2023-05-02T05:26:24;102092.00;;;7.70;100.00
19236;BME280;9752;54.270;12.470;2023-05-02T05:31:26;102063.78;;;7.63;100.00
19236;BME280;9752;54.270;12.470;2023-05-02T05:36:32;102046.44;;;7.43;100.00
19236;BME280;9752;54.270;12.470;2023-05-02T05:41:36;102024.22;;;7.26;100.00
19236;BME280;9752;54.270;12.470;2023-05-02T05:46:41;102018.19;;;7.17;100.00
19236;BME280;9752;54.270;12.470;2023-05-02T05:51:46;102010.91;;;7.21;100.00
19236;BME280;9752;54.270;12.470;2023-05-02T05:56:49;101983.03;;;7.36;100.00
19236;BME280;9752;54.270;12.470;2023-05-02T06:01:53;101966.06;;;7.49;100.00
19236;BME280;9752;54.270;12.470;2023-05-02T06:06:58;101945.50;;;7.21;100.00
19236;BME280;9752;54.270;12.470;2023-05-02T06:12:00;101929.88;;;7.19;100.00
19236;BME280;9752;54.270;12.470;2023-05-02T06:17:05;101926.84;;;7.34;100.00
19236;BME280;9752;54.270;12.470;2023-05-02T06:22:10;101904.28;;;7.31;100.00
19236;BME280;9752;54.270;12.470;2023-05-02T06:27:12;101904.63;;;7.26;100.00
19236;BME280;9752;54.270;12.470;2023-05-02T06:32:14;101907.88;;;7.52;100.00
19236;BME280;9752;54.270;12.470;2023-05-02T06:37:17;101916.41;;;7.70;100.00
19236;BME280;9752;54.270;12.470;2023-05-02T06:42:18;101911.50;;;7.54;100.00
19236;BME280;9752;54.270;12.470;2023-05-02T06:47:20;101900.41;;;7.74;100.00
19236;BME280;9752;54.270;12.470;2023-05-02T06:52:24;101910.41;;;7.61;100.00
19236;BME280;9752;54.270;12.470;2023-05-02T06:57:26;101929.84;;;7.76;100.00
19236;BME280;9752;54.270;12.470;2023-05-02T07:02:27;101927.19;;;7.47;100.00
19236;BME280;9752;54.270;12.470;2023-05-02T07:07:30;101920.97;;;7.64;100.00
19236;BME280;9752;54.270;12.470;2023-05-02T07:12:32;101923.41;;;7.62;100.00
19236;BME280;9752;54.270;12.470;2023-05-02T07:17:34;101948.78;;;8.25;100.00
19236;BME280;9752;54.270;12.470;2023-05-02T07:22:37;101937.38;;;7.84;100.00
19236;BME280;9752;54.270;12.470;2023-05-02T07:27:38;101943.09;;;7.90;100.00
19236;BME280;9752;54.270;12.470;2023-05-02T07:32:40;101947.63;;;7.73;100.00
19236;BME280;9752;54.270;12.470;2023-05-02T07:37:43;101954.75;;;7.57;100.00
19236;BME280;9752;54.270;12.470;2023-05-02T07:42:45;101970.38;;;7.77;100.00
19236;BME280;9752;54.270;12.470;2023-05-02T07:47:46;101972.00;;;7.86;100.00
19236;BME280;9752;54.270;12.470;2023-05-02T07:52:49;101975.34;;;7.85;100.00
19236;BME280;9752;54.270;12.470;2023-05-02T07:57:51;101999.00;;;8.08;100.00
19236;BME280;9752;54.270;12.470;2023-05-02T08:02:53;101999.50;;;8.63;100.00
19236;BME280;9752;54.270;12.470;2023-05-02T08:07:55;102004.13;;;8.46;100.00
19236;BME280;9752;54.270;12.470;2023-05-02T08:12:57;102006.06;;;8.30;100.00
19236;BME280;9752;54.270;12.470;2023-05-02T08:17:59;102012.72;;;8.76;100.00
19236;BME280;9752;54.270;12.470;2023-05-02T08:23:02;102027.94;;;8.63;100.00
19236;BME280;9752;54.270;12.470;2023-05-02T08:28:03;102030.81;;;8.76;100.00
19236;BME280;9752;54.270;12.470;2023-05-02T08:33:05;102045.25;;;8.34;100.00
19236;BME280;9752;54.270;12.470;2023-05-02T08:38:08;102044.56;;;8.85;100.00
19236;BME280;9752;54.270;12.470;2023-05-02T08:43:10;102059.50;;;8.69;100.00
19236;BME280;9752;54.270;12.470;2023-05-02T08:48:12;102073.75;;;8.74;100.00
19236;BME280;9752;54.270;12.470;2023-05-02T08:53:17;102076.06;;;9.10;100.00
19236;BME280;9752;54.270;12.470;2023-05-02T08:58:19;102089.34;;;8.84;100.00
19236;BME280;9752;54.270;12.470;2023-05-02T09:03:28;102096.06;;;8.82;100.00
19236;BME280;9752;54.270;12.470;2023-05-02T09:08:32;102096.25;;;9.04;100.00
19236;BME280;9752;54.270;12.470;2023-05-02T09:13:35;102105.34;;;8.80;100.00
19236;BME280;9752;54.270;12.470;2023-05-02T09:18:38;102117.69;;;9.63;100.00
19236;BME280;9752;54.270;12.470;2023-05-02T09:23:43;102112.00;;;9.57;100.00
19236;BME280;9752;54.270;12.470;2023-05-02T09:28:46;102116.38;;;9.48;100.00
19236;BME280;9752;54.270;12.470;2023-05-02T09:33:48;102124.13;;;8.58;100.00
19236;BME280;9752;54.270;12.470;2023-05-02T09:38:52;102127.13;;;8.92;100.00
19236;BME280;9752;54.270;12.470;2023-05-02T09:44:09;102150.31;;;8.72;100.00
19236;BME280;9752;54.270;12.470;2023-05-02T09:49:11;102141.47;;;9.28;100.00
19236;BME280;9752;54.270;12.470;2023-05-02T09:54:33;102153.06;;;9.63;100.00
19236;BME280;9752;54.270;12.470;2023-05-02T09:59:35;102181.44;;;8.82;100.00
19236;BME280;9752;54.270;12.470;2023-05-02T10:04:38;102172.63;;;9.59;100.00
19236;BME280;9752;54.270;12.470;2023-05-02T10:09:43;102192.78;;;9.43;100.00
19236;BME280;9752;54.270;12.470;2023-05-02T10:14:48;102188.50;;;10.34;100.00
19236;BME280;9752;54.270;12.470;2023-05-02T10:19:53;102191.50;;;9.08;100.00
19236;BME280;9752;54.270;12.470;2023-05-02T10:24:58;102192.59;;;8.91;100.00
19236;BME280;9752;54.270;12.470;2023-05-02T10:30:01;102192.59;;;9.81;100.00
19236;BME280;9752;54.270;12.470;2023-05-02T10:35:04;102199.72;;;10.65;100.00
19236;BME280;9752;54.270;12.470;2023-05-02T10:40:10;102193.56;;;10.85;100.00
19236;BME280;9752;54.270;12.470;2023-05-02T10:45:29;102215.28;;;10.24;100.00
19236;BME280;9752;54.270;12.470;2023-05-02T10:50:42;102207.78;;;10.27;100.00
19236;BME280;9752;54.270;12.470;2023-05-02T10:56:10;102216.69;;;9.80;100.00
19236;BME280;9752;54.270;12.470;2023-05-02T11:01:34;102219.16;;;9.88;100.00
19236;BME280;9752;54.270;12.470;2023-05-02T11:12:46;102217.66;;;10.31;100.00
19236;BME280;9752;54.270;12.470;2023-05-02T11:17:57;102234.69;;;9.68;100.00
19236;BME280;9752;54.270;12.470;2023-05-02T11:23:18;102232.28;;;10.00;100.00
19236;BME280;9752;54.270;12.470;2023-05-02T11:28:44;102224.72;;;9.33;100.00
19236;BME280;9752;54.270;12.470;2023-05-02T11:33:54;102234.78;;;9.49;100.00
19236;BME280;9752;54.270;12.470;2023-05-02T11:38:56;102239.97;;;9.59;100.00
19236;BME280;9752;54.270;12.470;2023-05-02T11:44:03;102241.13;;;10.33;100.00
19236;BME280;9752;54.270;12.470;2023-05-02T11:49:05;102257.78;;;9.85;100.00
19236;BME280;9752;54.270;12.470;2023-05-02T11:54:07;102273.19;;;9.84;100.00
19236;BME280;9752;54.270;12.470;2023-05-02T11:59:10;102286.47;;;10.18;100.00
19236;BME280;9752;54.270;12.470;2023-05-02T12:04:12;102283.94;;;9.78;100.00
19236;BME280;9752;54.270;12.470;2023-05-02T12:09:14;102278.03;;;10.10;100.00
19236;BME280;9752;54.270;12.470;2023-05-02T12:14:25;102300.63;;;10.21;100.00
19236;BME280;9752;54.270;12.470;2023-05-02T12:19:27;102298.06;;;9.71;100.00
19236;BME280;9752;54.270;12.470;2023-05-02T12:24:29;102294.03;;;10.35;100.00
19236;BME280;9752;54.270;12.470;2023-05-02T12:29:42;102302.78;;;10.16;100.00
19236;BME280;9752;54.270;12.470;2023-05-02T12:34:44;102308.25;;;10.30;100.00
19236;BME280;9752;54.270;12.470;2023-05-02T12:39:46;102313.75;;;10.43;100.00
19236;BME280;9752;54.270;12.470;2023-05-02T12:44:50;102311.69;;;10.70;100.00
19236;BME280;9752;54.270;12.470;2023-05-02T12:49:53;102321.94;;;10.48;100.00
19236;BME280;9752;54.270;12.470;2023-05-02T12:55:14;102338.28;;;9.97;100.00
19236;BME280;9752;54.270;12.470;2023-05-02T13:00:17;102333.34;;;10.40;100.00
19236;BME280;9752;54.270;12.470;2023-05-02T13:05:19;102329.78;;;10.29;100.00
19236;BME280;9752;54.270;12.470;2023-05-02T13:10:21;102345.53;;;10.01;100.00
19236;BME280;9752;54.270;12.470;2023-05-02T13:15:25;102340.22;;;10.60;100.00
19236;BME280;9752;54.270;12.470;2023-05-02T13:20:27;102355.78;;;10.60;100.00
19236;BME280;9752;54.270;12.470;2023-05-02T13:25:29;102345.34;;;10.29;100.00
19236;BME280;9752;54.270;12.470;2023-05-02T13:30:32;102352.28;;;10.39;100.00
19236;BME280;9752;54.270;12.470;2023-05-02T13:35:33;102359.94;;;10.47;100.00
19236;BME280;9752;54.270;12.470;2023-05-02T13:40:35;102357.09;;;10.75;100.00
19236;BME280;9752;54.270;12.470;2023-05-02T13:45:38;102355.34;;;11.27;100.00
19236;BME280;9752;54.270;12.470;2023-05-02T13:50:40;102366.88;;;11.30;100.00
19236;BME280;9752;54.270;12.470;2023-05-02T13:55:42;102361.13;;;10.82;100.00
19236;BME280;9752;54.270;12.470;2023-05-02T14:00:45;102359.13;;;11.20;100.00
19236;BME280;9752;54.270;12.470;2023-05-02T14:05:46;102365.38;;;10.50;100.00
19236;BME280;9752;54.270;12.470;2023-05-02T14:10:48;102357.22;;;10.77;100.00
19236;BME280;9752;54.270;12.470;2023-05-02T14:15:52;102370.81;;;11.25;100.00
19236;BME280;9752;54.270;12.470;2023-05-02T14:20:54;102362.44;;;11.40;100.00
19236;BME280;9752;54.270;12.470;2023-05-02T14:25:59;102368.13;;;10.93;100.00
19236;BME280;9752;54.270;12.470;2023-05-02T14:31:02;102372.81;;;12.37;100.00
19236;BME280;9752;54.270;12.470;2023-05-02T14:36:04;102375.34;;;11.70;100.00
19236;BME280;9752;54.270;12.470;2023-05-02T14:41:06;102377.94;;;13.50;100.00
19236;BME280;9752;54.270;12.470;2023-05-02T14:46:09;102381.31;;;13.25;100.00
19236;BME280;9752;54.270;12.470;2023-05-02T14:51:11;102398.84;;;13.16;100.00
19236;BME280;9752;54.270;12.470;2023-05-02T14:56:13;102389.44;;;12.95;100.00
19236;BME280;9752;54.270;12.470;2023-05-02T15:01:18;102377.50;;;14.16;100.00
19236;BME280;9752;54.270;12.470;2023-05-02T15:06:20;102396.22;;;12.93;100.00
19236;BME280;9752;54.270;12.470;2023-05-02T15:11:22;102395.22;;;13.26;100.00
19236;BME280;9752;54.270;12.470;2023-05-02T15:16:25;102396.38;;;14.00;100.00
19236;BME280;9752;54.270;12.470;2023-05-02T15:21:27;102395.66;;;15.15;100.00
19236;BME280;9752;54.270;12.470;2023-05-02T15:26:28;102397.84;;;14.45;100.00
19236;BME280;9752;54.270;12.470;2023-05-02T15:31:32;102398.59;;;14.81;100.00
19236;BME280;9752;54.270;12.470;2023-05-02T15:36:33;102407.44;;;14.70;100.00
19236;BME280;9752;54.270;12.470;2023-05-02T15:41:36;102408.34;;;14.22;100.00
19236;BME280;9752;54.270;12.470;2023-05-02T15:46:39;102440.75;;;14.37;100.00
19236;BME280;9752;54.270;12.470;2023-05-02T15:51:45;102427.56;;;14.11;100.00
19236;BME280;9752;54.270;12.470;2023-05-02T15:56:47;102433.28;;;14.30;100.00
19236;BME280;9752;54.270;12.470;2023-05-02T16:01:50;102436.75;;;14.05;100.00
19236;BME280;9752;54.270;12.470;2023-05-02T16:06:52;102456.72;;;13.58;100.00
19236;BME280;9752;54.270;12.470;2023-05-02T16:11:53;102460.19;;;12.89;100.00
19236;BME280;9752;54.270;12.470;2023-05-02T16:16:56;102452.63;;;12.70;100.00
19236;BME280;9752;54.270;12.470;2023-05-02T16:21:58;102450.81;;;13.37;100.00
19236;BME280;9752;54.270;12.470;2023-05-02T16:27:00;102461.34;;;13.04;100.00
19236;BME280;9752;54.270;12.470;2023-05-02T16:32:03;102457.16;;;13.40;100.00
19236;BME280;9752;54.270;12.470;2023-05-02T16:37:06;102422.13;;;15.20;100.00
19236;BME280;9752;54.270;12.470;2023-05-02T16:42:08;102438.91;;;14.48;100.00
19236;BME280;9752;54.270;12.470;2023-05-02T16:47:11;102439.06;;;15.00;100.00
19236;BME280;9752;54.270;12.470;2023-05-02T16:52:13;102430.97;;;16.57;100.00
19236;BME280;9752;54.270;12.470;2023-05-02T16:57:15;102450.63;;;14.41;100.00
19236;BME280;9752;54.270;12.470;2023-05-02T17:02:20;102453.97;;;14.27;100.00
19236;BME280;9752;54.270;12.470;2023-05-02T17:07:21;102450.31;;;15.64;100.00
19236;BME280;9752;54.270;12.470;2023-05-02T17:12:23;102448.75;;;15.79;100.00
19236;BME280;9752;54.270;12.470;2023-05-02T17:17:26;102467.28;;;14.43;100.00
19236;BME280;9752;54.270;12.470;2023-05-02T17:22:28;102482.41;;;12.96;100.00
19236;BME280;9752;54.270;12.470;2023-05-02T17:27:30;102483.38;;;14.01;100.00
19236;BME280;9752;54.270;12.470;2023-05-02T17:32:33;102489.06;;;13.95;100.00
19236;BME280;9752;54.270;12.470;2023-05-02T17:37:36;102488.56;;;13.30;100.00
19236;BME280;9752;54.270;12.470;2023-05-02T17:42:41;102502.09;;;12.48;100.00
19236;BME280;9752;54.270;12.470;2023-05-02T17:47:44;102507.47;;;12.39;100.00
19236;BME280;9752;54.270;12.470;2023-05-02T17:52:45;102507.75;;;12.00;100.00
19236;BME280;9752;54.270;12.470;2023-05-02T17:57:47;102506.09;;;10.98;100.00
19236;BME280;9752;54.270;12.470;2023-05-02T18:02:50;102524.72;;;10.04;100.00
19236;BME280;9752;54.270;12.470;2023-05-02T18:07:52;102519.69;;;10.16;100.00
19236;BME280;9752;54.270;12.470;2023-05-02T18:12:54;102520.59;;;9.49;100.00
19236;BME280;9752;54.270;12.470;2023-05-02T18:17:58;102521.09;;;9.17;100.00
19236;BME280;9752;54.270;12.470;2023-05-02T18:22:59;102520.78;;;8.95;100.00
19236;BME280;9752;54.270;12.470;2023-05-02T18:28:01;102521.47;;;8.67;100.00
19236;BME280;9752;54.270;12.470;2023-05-02T18:33:05;102514.69;;;8.41;100.00
19236;BME280;9752;54.270;12.470;2023-05-02T18:38:07;102514.88;;;8.34;100.00
19236;BME280;9752;54.270;12.470;2023-05-02T18:43:08;102526.63;;;8.21;100.00
19236;BME280;9752;54.270;12.470;2023-05-02T18:48:11;102532.84;;;8.15;100.00
19236;BME280;9752;54.270;12.470;2023-05-02T18:53:13;102529.66;;;8.09;100.00
19236;BME280;9752;54.270;12.470;2023-05-02T18:58:15;102533.78;;;7.98;100.00
19236;BME280;9752;54.270;12.470;2023-05-02T19:03:18;102547.00;;;7.92;100.00
19236;BME280;9752;54.270;12.470;2023-05-02T19:08:20;102551.25;;;7.92;100.00
19236;BME280;9752;54.270;12.470;2023-05-02T19:13:21;102549.59;;;7.92;100.00
19236;BME280;9752;54.270;12.470;2023-05-02T19:18:27;102556.88;;;7.88;100.00
19236;BME280;9752;54.270;12.470;2023-05-02T19:23:29;102555.06;;;7.87;100.00
19236;BME280;9752;54.270;12.470;2023-05-02T19:28:31;102558.09;;;7.82;100.00
19236;BME280;9752;54.270;12.470;2023-05-02T19:33:34;102566.28;;;7.61;100.00
19236;BME280;9752;54.270;12.470;2023-05-02T19:38:35;102582.06;;;7.64;100.00
19236;BME280;9752;54.270;12.470;2023-05-02T19:43:37;102580.56;;;7.66;100.00
19236;BME280;9752;54.270;12.470;2023-05-02T19:48:40;102588.47;;;7.59;100.00
19236;BME280;9752;54.270;12.470;2023-05-02T19:53:42;102588.94;;;7.72;100.00
19236;BME280;9752;54.270;12.470;2023-05-02T19:58:44;102593.63;;;7.68;100.00
19236;BME280;9752;54.270;12.470;2023-05-02T20:03:47;102592.09;;;7.70;100.00
19236;BME280;9752;54.270;12.470;2023-05-02T20:08:48;102597.28;;;7.61;100.00
19236;BME280;9752;54.270;12.470;2023-05-02T20:13:52;102600.59;;;7.60;100.00
19236;BME280;9752;54.270;12.470;2023-05-02T20:18:55;102602.69;;;7.47;100.00
19236;BME280;9752;54.270;12.470;2023-05-02T20:23:57;102615.00;;;7.40;100.00
19236;BME280;9752;54.270;12.470;2023-05-02T20:28:59;102609.41;;;7.53;100.00
19236;BME280;9752;54.270;12.470;2023-05-02T20:34:04;102615.16;;;7.42;100.00
19236;BME280;9752;54.270;12.470;2023-05-02T20:39:05;102621.34;;;7.35;100.00
19236;BME280;9752;54.270;12.470;2023-05-02T20:44:08;102620.28;;;7.33;100.00
19236;BME280;9752;54.270;12.470;2023-05-02T20:49:11;102620.44;;;7.43;100.00
19236;BME280;9752;54.270;12.470;2023-05-02T20:54:13;102618.16;;;7.29;100.00
19236;BME280;9752;54.270;12.470;2023-05-02T20:59:14;102619.94;;;7.30;100.00
19236;BME280;9752;54.270;12.470;2023-05-02T21:04:17;102627.69;;;7.30;100.00
19236;BME280;9752;54.270;12.470;2023-05-02T21:09:19;102636.44;;;7.15;100.00
19236;BME280;9752;54.270;12.470;2023-05-02T21:14:22;102639.19;;;7.16;100.00
19236;BME280;9752;54.270;12.470;2023-05-02T21:19:26;102639.78;;;7.14;100.00
19236;BME280;9752;54.270;12.470;2023-05-02T21:24:27;102643.88;;;7.12;100.00
19236;BME280;9752;54.270;12.470;2023-05-02T21:29:29;102652.47;;;7.03;100.00
19236;BME280;9752;54.270;12.470;2023-05-02T21:34:32;102656.66;;;6.94;100.00
19236;BME280;9752;54.270;12.470;2023-05-02T21:39:33;102658.19;;;6.92;100.00
19236;BME280;9752;54.270;12.470;2023-05-02T21:44:35;102666.72;;;6.75;100.00
19236;BME280;9752;54.270;12.470;2023-05-02T21:49:38;102654.09;;;6.94;100.00
19236;BME280;9752;54.270;12.470;2023-05-02T21:54:40;102653.03;;;6.92;100.00
19236;BME280;9752;54.270;12.470;2023-05-02T21:59:41;102651.75;;;6.80;100.00
19236;BME280;9752;54.270;12.470;2023-05-02T22:04:44;102662.78;;;6.70;100.00
19236;BME280;9752;54.270;12.470;2023-05-02T22:09:47;102665.88;;;6.83;100.00
19236;BME280;9752;54.270;12.470;2023-05-02T22:14:49;102669.28;;;6.91;100.00
19236;BME280;9752;54.270;12.470;2023-05-02T22:19:51;102662.72;;;6.86;100.00
19236;BME280;9752;54.270;12.470;2023-05-02T22:24:53;102676.63;;;6.79;100.00
19236;BME280;9752;54.270;12.470;2023-05-02T22:29:56;102675.16;;;6.90;100.00
19236;BME280;9752;54.270;12.470;2023-05-02T22:34:59;102684.69;;;6.82;100.00
19236;BME280;9752;54.270;12.470;2023-05-02T22:40:00;102685.72;;;6.76;100.00
19236;BME280;9752;54.270;12.470;2023-05-02T22:45:02;102687.53;;;6.77;100.00
19236;BME280;9752;54.270;12.470;2023-05-02T22:50:08;102687.47;;;6.68;100.00
19236;BME280;9752;54.270;12.470;2023-05-02T22:55:10;102686.28;;;6.73;100.00
19236;BME280;9752;54.270;12.470;2023-05-02T23:00:12;102689.28;;;6.69;100.00
19236;BME280;9752;54.270;12.470;2023-05-02T23:05:17;102687.97;;;6.73;100.00
19236;BME280;9752;54.270;12.470;2023-05-02T23:10:19;102691.69;;;6.68;100.00
19236;BME280;9752;54.270;12.470;2023-05-02T23:15:20;102694.28;;;6.68;100.00
19236;BME280;9752;54.270;12.470;2023-05-02T23:20:23;102700.69;;;6.71;100.00
19236;BME280;9752;54.270;12.470;2023-05-02T23:25:26;102696.88;;;6.68;100.00
19236;BME280;9752;54.270;12.470;2023-05-02T23:30:28;102702.41;;;6.55;100.00
19236;BME280;9752;54.270;12.470;2023-05-02T23:35:31;102705.63;;;6.61;100.00
19236;BME280;9752;54.270;12.470;2023-05-02T23:40:33;102706.06;;;6.41;100.00
19236;BME280;9752;54.270;12.470;2023-05-02T23:45:35;102715.88;;;6.36;100.00
19236;BME280;9752;54.270;12.470;2023-05-02T23:50:38;102719.28;;;6.44;100.00
19236;BME280;9752;54.270;12.470;2023-05-02T23:55:40;102718.69;;;6.47;100.00
